createdAt,value
2019-05-03T00:02:26.452Z,7.90
2019-05-03T00:05:06.699Z,8.70
2019-05-03T00:07:36.293Z,8.43
2019-05-03T00:10:08.084Z,8.40
2019-05-03T00:12:37.118Z,8.63
2019-05-03T00:15:18.450Z,8.87
2019-05-03T00:17:47.413Z,8.63
2019-05-03T00:20:17.138Z,8.83
2019-05-03T00:22:47.200Z,8.20
2019-05-03T00:25:16.386Z,8.20
2019-05-03T00:27:45.241Z,7.67
2019-05-03T00:30:14.838Z,8.23
2019-05-03T00:32:44.991Z,8.13
2019-05-03T00:35:28.163Z,7.30
2019-05-03T00:37:58.771Z,7.63
2019-05-03T00:40:32.254Z,9.13
2019-05-03T00:43:02.324Z,8.20
2019-05-03T00:45:31.735Z,8.40
2019-05-03T00:48:01.878Z,8.77
2019-05-03T00:50:32.181Z,8.10
2019-05-03T00:53:02.379Z,8.53
2019-05-03T00:55:32.817Z,8.80
2019-05-03T00:58:02.725Z,8.50
2019-05-03T01:00:32.370Z,8.40
2019-05-03T01:03:02.137Z,8.80
2019-05-03T01:05:33.117Z,8.80
2019-05-03T01:08:02.216Z,8.67
2019-05-03T01:10:33.099Z,8.63
2019-05-03T01:13:02.765Z,8.87
2019-05-03T01:15:36.314Z,8.63
2019-05-03T01:18:08.265Z,9.53
2019-05-03T01:20:36.920Z,11.17
2019-05-03T01:23:05.942Z,10.67
2019-05-03T01:25:35.614Z,11.23
2019-05-03T01:28:04.443Z,10.73
2019-05-03T01:30:33.123Z,13.13
2019-05-03T01:33:02.926Z,14.07
2019-05-03T01:35:32.273Z,13.07
2019-05-03T01:38:02.607Z,12.47
2019-05-03T01:40:32.747Z,12.30
2019-05-03T01:43:02.456Z,13.43
2019-05-03T01:45:31.876Z,13.23
2019-05-03T01:48:03.141Z,12.97
2019-05-03T01:50:36.513Z,14.30
2019-05-03T01:53:10.098Z,13.43
2019-05-03T01:55:54.874Z,14.63
2019-05-03T01:58:24.458Z,13.67
2019-05-03T02:01:03.997Z,13.57
2019-05-03T02:03:34.727Z,13.80
2019-05-03T02:06:03.440Z,14.63
2019-05-03T02:08:32.680Z,11.33
2019-05-03T02:11:02.202Z,12.10
2019-05-03T02:13:32.173Z,11.20
2019-05-03T02:16:02.304Z,11.27
2019-05-03T02:18:31.803Z,9.80
2019-05-03T02:21:01.794Z,9.70
2019-05-03T02:23:31.986Z,9.40
2019-05-03T02:26:03.126Z,8.10
2019-05-03T02:28:32.674Z,8.60
2019-05-03T02:31:03.563Z,7.80
2019-05-03T02:33:32.896Z,8.33
2019-05-03T02:36:03.649Z,7.87
2019-05-03T02:38:33.994Z,8.27
2019-05-03T02:41:03.372Z,8.90
2019-05-03T02:43:40.738Z,14.20
2019-05-03T02:46:25.311Z,42.33
2019-05-03T02:49:02.805Z,22.37
2019-05-03T02:51:32.361Z,17.60
2019-05-03T02:54:01.375Z,17.27
2019-05-03T02:56:30.417Z,18.90
2019-05-03T02:58:59.367Z,17.30
2019-05-03T03:01:29.595Z,14.77
2019-05-03T03:04:01.016Z,15.17
2019-05-03T03:06:36.441Z,15.30
2019-05-03T03:09:05.726Z,15.93
2019-05-03T03:11:38.233Z,16.73
2019-05-03T03:14:11.273Z,14.73
2019-05-03T03:16:45.291Z,14.07
2019-05-03T03:19:16.066Z,14.10
2019-05-03T03:21:47.368Z,9.83
2019-05-03T03:24:21.397Z,8.97
2019-05-03T03:26:52.702Z,8.73
2019-05-03T03:29:25.623Z,8.70
2019-05-03T03:32:08.494Z,8.63
2019-05-03T03:34:47.562Z,8.20
2019-05-03T03:37:12.065Z,9.03
2019-05-03T03:39:45.735Z,9.07
2019-05-03T03:42:16.201Z,9.60
2019-05-03T03:44:46.059Z,9.00
2019-05-03T03:47:16.905Z,9.67
2019-05-03T03:49:48.507Z,9.57
2019-05-03T03:52:20.858Z,9.10
2019-05-03T03:54:51.317Z,9.33
2019-05-03T03:57:25.262Z,9.27
2019-05-03T03:59:56.264Z,9.47
2019-05-03T04:02:26.512Z,9.63
2019-05-03T04:04:56.279Z,9.67
2019-05-03T04:07:26.396Z,9.87
2019-05-03T04:09:57.239Z,9.30
2019-05-03T04:12:27.180Z,10.63
2019-05-03T04:14:57.776Z,10.77
2019-05-03T04:17:45.715Z,12.23
2019-05-03T04:20:17.931Z,12.27
2019-05-03T04:22:46.564Z,12.77
2019-05-03T04:25:15.744Z,12.13
2019-05-03T04:27:45.841Z,13.03
2019-05-03T04:30:16.593Z,15.13
2019-05-03T04:32:45.543Z,14.00
2019-05-03T04:35:16.326Z,15.17
2019-05-03T04:37:45.658Z,14.40
2019-05-03T04:40:15.936Z,14.20
2019-05-03T04:42:46.798Z,16.60
2019-05-03T04:45:16.850Z,16.13
2019-05-03T04:47:46.702Z,16.50
2019-05-03T04:50:16.579Z,16.47
2019-05-03T04:52:47.850Z,16.80
2019-05-03T04:55:17.418Z,17.20
2019-05-03T04:57:50.051Z,16.90
2019-05-03T05:00:17.319Z,16.97
2019-05-03T05:02:48.823Z,17.20
2019-05-03T05:05:20.174Z,13.50
2019-05-03T05:07:48.831Z,13.80
2019-05-03T05:10:19.055Z,12.30
2019-05-03T05:12:47.788Z,12.70
2019-05-03T05:15:16.963Z,10.97
2019-05-03T05:17:47.612Z,11.70
2019-05-03T05:20:19.654Z,10.63
2019-05-03T05:22:48.554Z,10.47
2019-05-03T05:25:18.819Z,10.70
2019-05-03T05:28:05.346Z,10.60
2019-05-03T05:30:35.415Z,10.87
2019-05-03T05:33:05.475Z,10.90
2019-05-03T05:35:35.254Z,11.63
2019-05-03T05:38:04.735Z,13.37
2019-05-03T05:40:34.921Z,12.67
2019-05-03T05:43:04.914Z,11.93
2019-05-03T05:45:35.029Z,11.97
2019-05-03T05:48:05.354Z,13.83
2019-05-03T05:50:38.728Z,21.20
2019-05-03T05:53:15.131Z,17.37
2019-05-03T05:55:57.151Z,16.33
2019-05-03T05:58:34.889Z,16.17
2019-05-03T06:01:06.166Z,14.63
2019-05-03T06:03:35.783Z,14.23
2019-05-03T06:06:06.444Z,15.03
2019-05-03T06:08:36.871Z,14.83
2019-05-03T06:11:09.115Z,14.97
2019-05-03T06:13:40.453Z,14.73
2019-05-03T06:16:11.571Z,18.20
2019-05-03T06:18:54.546Z,16.53
2019-05-03T06:21:31.234Z,17.27
2019-05-03T06:24:05.751Z,18.67
2019-05-03T06:26:44.320Z,16.23
2019-05-03T06:29:14.970Z,16.17
2019-05-03T06:31:48.727Z,15.23
2019-05-03T06:34:18.262Z,13.57
2019-05-03T06:36:51.415Z,13.80
2019-05-03T06:39:20.003Z,13.60
2019-05-03T06:41:50.295Z,13.60
2019-05-03T06:44:24.719Z,12.90
2019-05-03T06:46:55.130Z,13.03
2019-05-03T06:49:27.199Z,12.27
2019-05-03T06:51:56.243Z,12.50
2019-05-03T06:54:29.973Z,12.20
2019-05-03T06:57:00.135Z,11.33
2019-05-03T06:59:31.017Z,13.10
2019-05-03T07:02:06.259Z,11.37
2019-05-03T07:04:39.484Z,11.33
2019-05-03T07:07:15.536Z,11.50
2019-05-03T07:09:57.955Z,11.70
2019-05-03T07:12:29.089Z,10.80
2019-05-03T07:14:59.612Z,11.20
2019-05-03T07:17:28.425Z,10.97
2019-05-03T07:19:57.888Z,10.47
2019-05-03T07:22:27.683Z,10.27
2019-05-03T07:24:57.843Z,10.53
2019-05-03T07:27:29.164Z,8.70
2019-05-03T07:29:58.810Z,8.50
2019-05-03T07:32:30.065Z,6.97
2019-05-03T07:34:59.607Z,6.77
2019-05-03T07:37:31.243Z,6.77
2019-05-03T07:40:00.201Z,6.90
2019-05-03T07:42:29.253Z,7.03
2019-05-03T07:44:59.566Z,6.63
2019-05-03T07:47:29.156Z,7.07
2019-05-03T07:49:57.730Z,6.77
2019-05-03T07:52:27.271Z,7.37
2019-05-03T07:54:56.931Z,6.10
2019-05-03T07:57:28.057Z,6.63
2019-05-03T07:59:57.682Z,8.10
2019-05-03T08:02:27.538Z,6.90
2019-05-03T08:04:59.806Z,7.33
2019-05-03T08:07:31.631Z,6.30
2019-05-03T08:10:00.257Z,6.63
2019-05-03T08:12:28.817Z,6.80
2019-05-03T08:14:57.817Z,7.13
2019-05-03T08:17:27.445Z,7.63
2019-05-03T08:19:56.606Z,7.50
2019-05-03T08:22:25.783Z,7.23
2019-05-03T08:24:56.481Z,7.67
2019-05-03T08:27:25.973Z,7.27
2019-05-03T08:29:55.802Z,6.67
2019-05-03T08:32:26.196Z,7.63
2019-05-03T08:35:11.798Z,8.47
2019-05-03T08:37:48.111Z,8.40
2019-05-03T08:40:17.941Z,8.87
2019-05-03T08:42:46.922Z,8.43
2019-05-03T08:45:17.118Z,8.53
2019-05-03T08:47:46.648Z,8.60
2019-05-03T08:50:21.217Z,9.13
2019-05-03T08:52:45.819Z,8.53
2019-05-03T08:55:15.827Z,9.07
2019-05-03T08:57:44.953Z,9.40
2019-05-03T09:00:16.153Z,8.67
2019-05-03T09:02:47.019Z,8.80
2019-05-03T09:05:18.576Z,9.13
2019-05-03T09:07:50.813Z,9.27
2019-05-03T09:10:20.974Z,9.30
2019-05-03T09:13:08.809Z,8.73
2019-05-03T09:15:40.701Z,9.27
2019-05-03T09:18:09.711Z,9.30
2019-05-03T09:20:39.330Z,8.70
2019-05-03T09:23:09.012Z,8.83
2019-05-03T09:25:38.011Z,10.03
2019-05-03T09:28:09.527Z,8.90
2019-05-03T09:30:39.254Z,8.40
2019-05-03T09:33:09.158Z,8.77
2019-05-03T09:35:38.452Z,7.70
2019-05-03T09:38:08.696Z,7.70
2019-05-03T09:40:37.370Z,6.70
2019-05-03T09:43:07.132Z,8.13
2019-05-03T09:45:39.334Z,8.40
2019-05-03T09:48:08.689Z,9.67
2019-05-03T09:50:38.280Z,7.97
2019-05-03T09:53:09.100Z,5.93
2019-05-03T09:55:41.770Z,6.10
2019-05-03T09:58:11.448Z,5.37
2019-05-03T10:00:40.489Z,6.17
2019-05-03T10:03:09.133Z,6.03
2019-05-03T10:05:39.652Z,6.13
2019-05-03T10:08:08.729Z,6.03
2019-05-03T10:10:44.874Z,6.93
2019-05-03T10:13:23.208Z,5.80
2019-05-03T10:15:45.753Z,5.30
2019-05-03T10:18:16.886Z,5.33
2019-05-03T10:20:47.830Z,5.90
2019-05-03T10:23:18.486Z,5.40
2019-05-03T10:25:47.116Z,5.20
2019-05-03T10:28:15.916Z,4.70
2019-05-03T10:30:45.137Z,4.90
2019-05-03T10:33:21.694Z,5.13
2019-05-03T10:35:50.359Z,7.07
2019-05-03T10:38:20.582Z,6.13
2019-05-03T10:40:49.309Z,5.83
2019-05-03T10:43:18.921Z,6.30
2019-05-03T10:45:47.966Z,7.23
2019-05-03T10:48:16.978Z,5.10
2019-05-03T10:50:45.618Z,4.27
2019-05-03T10:53:22.509Z,4.27
2019-05-03T10:56:09.400Z,4.50
2019-05-03T10:58:39.902Z,4.17
2019-05-03T11:01:09.570Z,4.43
2019-05-03T11:03:39.197Z,4.80
2019-05-03T11:06:09.907Z,4.10
2019-05-03T11:08:39.383Z,4.23
2019-05-03T11:11:09.054Z,4.80
2019-05-03T11:13:37.825Z,5.63
2019-05-03T11:16:07.472Z,10.63
2019-05-03T11:18:36.246Z,5.10
2019-05-03T11:21:05.286Z,5.77
2019-05-03T11:23:36.625Z,5.60
2019-05-03T11:26:05.406Z,6.97
2019-05-03T11:28:35.979Z,7.43
2019-05-03T11:31:21.211Z,6.77
2019-05-03T11:33:50.036Z,6.13
2019-05-03T11:36:20.314Z,5.40
2019-05-03T11:38:49.036Z,5.27
2019-05-03T11:41:29.464Z,4.60
2019-05-03T11:43:48.029Z,4.40
2019-05-03T11:46:17.185Z,3.93
2019-05-03T11:48:46.013Z,4.80
2019-05-03T11:51:15.221Z,4.63
2019-05-03T11:53:45.058Z,4.50
2019-05-03T11:56:14.847Z,4.50
2019-05-03T11:58:45.639Z,4.67
2019-05-03T12:01:19.710Z,4.67
2019-05-03T12:03:47.517Z,4.67
2019-05-03T12:06:16.239Z,3.93
2019-05-03T12:08:44.998Z,3.80
2019-05-03T12:11:15.058Z,4.13
2019-05-03T12:13:45.717Z,3.97
2019-05-03T12:16:22.499Z,3.97
2019-05-03T12:18:52.888Z,3.93
2019-05-03T12:21:18.112Z,3.97
2019-05-03T12:23:46.247Z,4.50
2019-05-03T12:26:17.244Z,5.70
2019-05-03T12:28:45.710Z,6.13
2019-05-03T12:31:28.208Z,5.80
2019-05-03T12:33:45.920Z,4.87
2019-05-03T12:36:15.494Z,4.53
2019-05-03T12:38:44.220Z,4.63
2019-05-03T12:41:14.929Z,3.93
2019-05-03T12:43:43.239Z,4.90
2019-05-03T12:46:11.866Z,4.23
2019-05-03T12:48:40.506Z,4.33
2019-05-03T12:51:09.627Z,3.67
2019-05-03T12:53:38.592Z,4.93
2019-05-03T12:56:11.719Z,3.83
2019-05-03T12:58:51.179Z,3.60
2019-05-03T13:01:41.917Z,3.87
2019-05-03T13:04:08.246Z,3.97
2019-05-03T13:06:38.573Z,3.93
2019-05-03T13:09:07.495Z,3.90
2019-05-03T13:11:51.162Z,3.90
2019-05-03T13:14:08.297Z,3.43
2019-05-03T13:16:36.848Z,3.30
2019-05-03T13:19:05.711Z,4.10
2019-05-03T13:21:35.497Z,4.10
2019-05-03T13:24:05.498Z,3.60
2019-05-03T13:26:35.070Z,3.70
2019-05-03T13:29:05.846Z,3.90
2019-05-03T13:31:34.767Z,3.60
2019-05-03T13:34:05.471Z,6.53
2019-05-03T13:36:34.900Z,14.30
2019-05-03T13:39:14.063Z,9.23
2019-05-03T13:41:35.394Z,15.33
2019-05-03T13:44:05.195Z,7.90
2019-05-03T13:46:35.354Z,5.10
2019-05-03T13:49:05.400Z,3.83
2019-05-03T13:51:35.822Z,3.97
2019-05-03T13:54:05.505Z,3.17
2019-05-03T13:56:35.302Z,4.03
2019-05-03T13:59:05.920Z,3.70
2019-05-03T14:01:34.618Z,3.57
2019-05-03T14:04:05.165Z,5.17
2019-05-03T14:06:36.522Z,4.07
2019-05-03T14:09:06.049Z,2.83
2019-05-03T14:11:35.380Z,4.43
2019-05-03T14:14:04.714Z,3.43
2019-05-03T14:16:33.564Z,3.97
2019-05-03T14:19:05.275Z,4.03
2019-05-03T14:21:44.980Z,5.83
2019-05-03T14:24:15.638Z,6.10
2019-05-03T14:26:44.782Z,3.07
2019-05-03T14:29:14.894Z,4.90
2019-05-03T14:31:45.362Z,4.00
2019-05-03T14:34:16.924Z,4.30
2019-05-03T14:36:46.127Z,5.07
2019-05-03T14:39:15.185Z,3.30
2019-05-03T14:41:46.553Z,3.70
2019-05-03T14:44:17.650Z,3.07
2019-05-03T14:46:45.808Z,3.47
2019-05-03T14:49:14.875Z,3.63
2019-05-03T14:51:45.378Z,4.23
2019-05-03T14:54:14.551Z,3.90
2019-05-03T14:57:01.836Z,3.90
2019-05-03T14:59:41.004Z,3.80
2019-05-03T15:02:11.325Z,4.63
2019-05-03T15:04:40.030Z,5.40
2019-05-03T15:07:08.665Z,4.70
2019-05-03T15:09:38.896Z,4.77
2019-05-03T15:12:07.611Z,3.93
2019-05-03T15:14:36.267Z,4.20
2019-05-03T15:17:05.437Z,3.87
2019-05-03T15:19:34.985Z,4.77
2019-05-03T15:22:05.594Z,4.20
2019-05-03T15:24:34.611Z,3.53
2019-05-03T15:27:04.942Z,4.10
2019-05-03T15:29:35.469Z,3.83
2019-05-03T15:32:05.021Z,4.00
2019-05-03T15:34:35.395Z,4.93
2019-05-03T15:37:05.404Z,4.87
2019-05-03T15:39:34.376Z,4.60
2019-05-03T15:42:05.093Z,5.00
2019-05-03T15:44:51.524Z,10.40
2019-05-03T15:47:25.372Z,4.63
2019-05-03T15:49:55.370Z,4.20
2019-05-03T15:52:24.696Z,3.63
2019-05-03T15:54:55.098Z,3.13
2019-05-03T15:57:25.255Z,4.73
2019-05-03T15:59:55.168Z,4.23
2019-05-03T16:02:24.658Z,3.80
2019-05-03T16:04:55.433Z,8.77
2019-05-03T16:07:25.027Z,5.70
2019-05-03T16:09:55.285Z,10.30
2019-05-03T16:12:24.041Z,5.10
2019-05-03T16:14:52.598Z,7.53
2019-05-03T16:17:21.255Z,6.10
2019-05-03T16:19:49.893Z,22.87
2019-05-03T16:22:18.588Z,4.90
2019-05-03T16:24:47.285Z,7.40
2019-05-03T16:27:29.822Z,15.43
2019-05-03T16:29:59.130Z,5.90
2019-05-03T16:32:27.821Z,6.47
2019-05-03T16:34:56.464Z,5.80
2019-05-03T16:37:25.538Z,8.90
2019-05-03T16:39:55.049Z,12.63
2019-05-03T16:42:24.839Z,7.40
2019-05-03T16:44:55.002Z,11.00
2019-05-03T16:47:24.925Z,9.97
2019-05-03T16:49:53.713Z,7.27
2019-05-03T16:52:22.356Z,8.63
2019-05-03T16:54:51.035Z,7.03
2019-05-03T16:57:19.608Z,7.87
2019-05-03T16:59:48.266Z,6.80
2019-05-03T17:02:17.348Z,6.97
2019-05-03T17:04:47.893Z,5.77
2019-05-03T17:07:30.080Z,6.93
2019-05-03T17:10:00.315Z,6.67
2019-05-03T17:12:30.722Z,6.73
2019-05-03T17:14:59.349Z,6.30
2019-05-03T17:17:28.037Z,5.50
2019-05-03T17:19:56.747Z,6.47
2019-05-03T17:22:25.373Z,11.53
2019-05-03T17:24:55.132Z,7.97
2019-05-03T17:27:24.990Z,8.13
2019-05-03T17:29:55.227Z,8.50
2019-05-03T17:32:24.522Z,6.37
2019-05-03T17:34:54.880Z,39.87
2019-05-03T17:37:25.471Z,7.33
2019-05-03T17:40:07.770Z,7.90
2019-05-03T17:42:54.783Z,7.83
2019-05-03T17:45:25.437Z,7.30
2019-05-03T17:47:54.858Z,6.37
2019-05-03T17:50:23.576Z,8.60
2019-05-03T17:53:12.219Z,7.80
2019-05-03T17:55:51.448Z,6.77
2019-05-03T17:58:37.012Z,7.83
2019-05-03T18:01:23.844Z,6.93
2019-05-03T18:04:03.898Z,6.90
2019-05-03T18:06:26.137Z,6.10
2019-05-03T18:08:56.518Z,10.03
2019-05-03T18:11:29.193Z,9.53
2019-05-03T18:13:57.839Z,8.10
2019-05-03T18:16:26.508Z,6.17
2019-05-03T18:18:55.324Z,9.10
2019-05-03T18:21:24.454Z,8.10
2019-05-03T18:23:54.511Z,8.07
2019-05-03T18:26:24.937Z,8.53
2019-05-03T18:28:55.307Z,5.63
2019-05-03T18:31:24.999Z,7.70
2019-05-03T18:33:54.735Z,8.17
2019-05-03T18:36:25.297Z,6.87
2019-05-03T18:38:55.250Z,9.33
2019-05-03T18:41:25.508Z,8.17
2019-05-03T18:44:01.820Z,10.60
2019-05-03T18:46:32.201Z,8.20
2019-05-03T18:49:00.895Z,7.07
2019-05-03T18:51:29.535Z,6.63
2019-05-03T18:53:58.190Z,5.00
2019-05-03T18:56:26.968Z,8.70
2019-05-03T18:58:55.590Z,7.73
2019-05-03T19:01:25.329Z,8.53
2019-05-03T19:03:55.784Z,7.97
2019-05-03T19:06:24.417Z,7.47
2019-05-03T19:09:10.025Z,8.47
2019-05-03T19:11:43.032Z,7.27
2019-05-03T19:14:25.576Z,8.13
2019-05-03T19:17:15.378Z,6.63
2019-05-03T19:19:45.784Z,6.40
2019-05-03T19:22:15.380Z,6.40
2019-05-03T19:24:44.530Z,8.57
2019-05-03T19:27:13.400Z,7.80
2019-05-03T19:29:42.110Z,7.80
2019-05-03T19:32:10.863Z,7.00
2019-05-03T19:34:50.054Z,7.07
2019-05-03T19:37:09.918Z,7.60
2019-05-03T19:39:38.565Z,6.80
2019-05-03T19:42:07.281Z,5.50
2019-05-03T19:44:36.998Z,5.77
2019-05-03T19:47:06.785Z,8.30
2019-05-03T19:49:35.512Z,5.93
2019-05-03T19:52:05.227Z,6.13
2019-05-03T19:54:36.043Z,6.83
2019-05-03T19:57:05.015Z,5.00
2019-05-03T19:59:50.493Z,6.03
2019-05-03T20:02:26.955Z,10.03
2019-05-03T20:05:12.422Z,5.77
2019-05-03T20:07:45.865Z,6.27
2019-05-03T20:10:17.870Z,5.60
2019-05-03T20:12:45.541Z,5.47
2019-05-03T20:15:14.597Z,6.30
2019-05-03T20:17:54.665Z,36.50
2019-05-03T20:20:15.473Z,6.67
2019-05-03T20:22:45.077Z,7.10
2019-05-03T20:25:15.195Z,7.73
2019-05-03T20:27:44.535Z,6.13
2019-05-03T20:30:15.059Z,7.47
2019-05-03T20:32:45.040Z,6.80
2019-05-03T20:35:18.849Z,8.17
2019-05-03T20:37:44.906Z,7.80
2019-05-03T20:40:15.352Z,6.27
2019-05-03T20:43:02.074Z,5.83
2019-05-03T20:45:44.549Z,4.30
2019-05-03T20:48:15.049Z,5.10
2019-05-03T20:50:44.728Z,5.00
2019-05-03T20:53:13.519Z,4.43
2019-05-03T20:55:42.155Z,4.03
2019-05-03T20:58:11.478Z,5.17
2019-05-03T21:00:40.369Z,7.03
2019-05-03T21:03:09.085Z,5.20
2019-05-03T21:05:37.746Z,6.63
2019-05-03T21:08:07.252Z,5.10
2019-05-03T21:10:35.823Z,5.43
2019-05-03T21:13:05.469Z,5.00
2019-05-03T21:15:52.577Z,4.80
2019-05-03T21:18:24.374Z,4.93
2019-05-03T21:21:13.293Z,5.03
2019-05-03T21:23:46.674Z,5.43
2019-05-03T21:26:16.623Z,5.67
2019-05-03T21:28:45.536Z,6.70
2019-05-03T21:31:15.634Z,6.77
2019-05-03T21:33:44.576Z,5.80
2019-05-03T21:36:14.968Z,6.00
2019-05-03T21:38:44.393Z,6.20
2019-05-03T21:41:15.688Z,6.83
2019-05-03T21:43:45.113Z,6.93
2019-05-03T21:46:15.545Z,7.27
2019-05-03T21:48:49.004Z,5.93
2019-05-03T21:51:17.730Z,6.40
2019-05-03T21:53:46.375Z,6.27
2019-05-03T21:56:15.053Z,6.23
2019-05-03T21:58:44.715Z,5.43
2019-05-03T22:01:15.560Z,5.70
2019-05-03T22:03:44.882Z,5.80
2019-05-03T22:06:15.427Z,5.07
2019-05-03T22:08:45.535Z,5.50
2019-05-03T22:11:14.850Z,5.37
2019-05-03T22:13:45.474Z,5.33
2019-05-03T22:16:15.823Z,7.03
2019-05-03T22:18:45.484Z,6.43
2019-05-03T22:21:27.508Z,6.10
2019-05-03T22:24:00.590Z,5.83
2019-05-03T22:26:47.553Z,5.10
2019-05-03T22:29:17.157Z,4.90
2019-05-03T22:31:45.965Z,5.17
2019-05-03T22:34:15.101Z,4.97
2019-05-03T22:36:44.404Z,5.20
2019-05-03T22:39:13.208Z,5.00
2019-05-03T22:41:41.804Z,4.83
2019-05-03T22:44:10.613Z,4.90
2019-05-03T22:46:39.354Z,5.07
2019-05-03T22:49:08.027Z,4.90
2019-05-03T22:51:36.746Z,4.90
2019-05-03T22:54:05.396Z,4.80
2019-05-03T22:56:35.574Z,5.07
2019-05-03T22:59:05.867Z,4.77
2019-05-03T23:01:35.268Z,5.13
2019-05-03T23:04:05.596Z,5.13
2019-05-03T23:06:34.391Z,4.87
2019-05-03T23:09:05.025Z,4.83
2019-05-03T23:11:35.325Z,4.90
2019-05-03T23:14:04.870Z,5.27
2019-05-03T23:16:35.747Z,5.07
2019-05-03T23:19:05.566Z,5.10
2019-05-03T23:21:41.858Z,5.27
2019-05-03T23:24:10.685Z,5.20
2019-05-03T23:26:39.378Z,4.50
2019-05-03T23:29:08.050Z,4.90
2019-05-03T23:31:36.818Z,5.43
2019-05-03T23:34:05.444Z,4.40
2019-05-03T23:36:36.251Z,4.50
2019-05-03T23:39:07.613Z,5.13
2019-05-03T23:41:36.349Z,4.63
2019-05-03T23:44:04.996Z,4.70
2019-05-03T23:46:38.129Z,4.30
2019-05-03T23:49:06.765Z,4.37
2019-05-03T23:51:46.036Z,4.70
2019-05-03T23:54:15.059Z,4.90
2019-05-03T23:56:45.758Z,4.63
2019-05-03T23:59:14.883Z,4.60
